Time;durP1;ratioP1;P1;durP2;ratioP2;P2;SDS_P1;SDS_P2;PMS_P1;PMS_P2;Temp;Humidity;BMP_temperature;BMP_pressure;BME280_temperature;BME280_humidity;BME280_pressure;Samples;Min_cycle;Max_cycle;Signal;HPM_P1;HPM_P2
2023/09/01 00:01:09;;;;;;;3.38;2.00;;;;;13.40;93945.00;;;;7398020;19;20144;-76
2023/09/01 00:03:44;;;;;;;4.18;2.35;;;;;13.50;93950.00;;;;7402630;19;20136;-75
2023/09/01 00:06:21;;;;;;;5.57;2.38;;;;;13.50;93945.00;;;;7399504;19;20258;-74
2023/09/01 00:09:03;;;;;;;3.85;2.35;;;;;13.30;93936.00;;;;7398472;19;20219;-75
2023/09/01 00:11:31;;;;;;;4.97;2.55;;;;;13.50;93936.00;;;;7401762;19;20147;-73
2023/09/01 00:14:06;;;;;;;6.70;2.58;;;;;13.40;93876.00;;;;7399563;19;20156;-77
2023/09/01 00:16:34;;;;;;;5.32;2.30;;;;;13.50;93949.00;;;;7399040;19;20611;-74
2023/09/01 00:19:08;;;;;;;5.00;2.47;;;;;13.30;93945.00;;;;7401609;19;20600;-76
2023/09/01 00:21:36;;;;;;;6.60;2.80;;;;;13.30;93947.00;;;;7399524;19;20161;-76
2023/09/01 00:24:04;;;;;;;4.22;2.30;;;;;13.30;93934.00;;;;7401127;19;20144;-77
2023/09/01 00:26:40;;;;;;;3.75;2.35;;;;;13.10;93938.00;;;;7399629;19;20595;-75
2023/09/01 00:29:07;;;;;;;4.93;2.35;;;;;13.20;93941.00;;;;7399049;19;20604;-75
2023/09/01 00:31:41;;;;;;;6.47;2.63;;;;;13.20;93927.00;;;;7399274;19;20157;-75
2023/09/01 00:34:09;;;;;;;7.32;2.60;;;;;13.10;93930.00;;;;7400410;19;20540;-75
2023/09/01 00:36:37;;;;;;;3.63;2.63;;;;;13.00;93943.00;;;;7397506;19;20672;-75
2023/09/01 00:39:12;;;;;;;4.35;2.50;;;;;13.00;93938.00;;;;7400860;19;20588;-77
2023/09/01 00:41:45;;;;;;;5.50;2.70;;;;;13.00;93933.00;;;;7400510;19;20125;-75
2023/09/01 00:44:19;;;;;;;4.57;2.20;;;;;13.00;93941.00;;;;7399676;19;20142;-74
2023/09/01 00:46:53;;;;;;;3.58;2.50;;;;;13.00;93949.00;;;;7398735;19;20156;-74
2023/09/01 00:49:26;;;;;;;3.58;2.67;;;;;12.80;93951.00;;;;7398881;19;20129;-74
2023/09/01 00:51:59;;;;;;;5.88;2.70;;;;;12.90;93950.00;;;;7398498;19;20136;-75
2023/09/01 00:54:31;;;;;;;4.97;2.20;;;;;12.80;93951.00;;;;7398653;19;20149;-74
2023/09/01 00:57:05;;;;;;;3.90;2.42;;;;;12.70;93937.00;;;;7400928;19;20136;-74
2023/09/01 00:59:39;;;;;;;4.47;2.70;;;;;12.80;93948.00;;;;7397846;19;20137;-75
2023/09/01 01:02:12;;;;;;;5.60;2.50;;;;;12.90;93933.00;;;;7396329;19;20180;-72
2023/09/01 01:04:40;;;;;;;3.72;2.55;;;;;12.80;93955.00;;;;7399658;19;20620;-72
2023/09/01 01:07:26;;;;;;;4.32;2.72;;;;;12.80;93937.00;;;;7397720;19;20480;-72
2023/09/01 01:10:21;;;;;;;4.88;3.33;;;;;12.70;93943.00;;;;7398068;19;20217;-73
2023/09/01 01:12:57;;;;;;;5.70;2.90;;;;;12.70;93946.00;;;;7395147;19;20149;-74
2023/09/01 01:15:34;;;;;;;6.43;2.97;;;;;12.90;93939.00;;;;7399412;19;20148;-72
2023/09/01 01:18:12;;;;;;;8.00;2.60;;;;;12.80;93945.00;;;;7397298;19;20172;-71
2023/09/01 01:21:10;;;;;;;4.53;3.20;;;;;12.80;93953.00;;;;7397477;19;20160;-72
2023/09/01 01:23:44;;;;;;;3.38;2.85;;;;;12.80;93945.00;;;;7398204;19;20153;-74
2023/09/01 01:26:23;;;;;;;7.40;3.85;;;;;12.80;93941.00;;;;7399947;19;20200;-75
2023/09/01 01:28:57;;;;;;;7.60;3.30;;;;;12.80;93932.00;;;;7398716;19;20587;-75
2023/09/01 01:31:25;;;;;;;3.30;2.95;;;;;12.80;93927.00;;;;7399337;19;20512;-75
2023/09/01 01:34:34;;;;;;;4.38;3.20;;;;;12.80;93927.00;;;;7398847;19;20137;-76
2023/09/01 01:37:21;;;;;;;5.68;3.25;;;;;12.80;93928.00;;;;7397989;19;20603;-76
2023/09/01 01:39:57;;;;;;;7.28;3.10;;;;;12.80;93929.00;;;;7400488;19;20470;-76
2023/09/01 01:42:28;;;;;;;6.05;3.28;;;;;12.80;93933.00;;;;7398951;19;20144;-76
2023/09/01 01:44:57;;;;;;;6.18;3.20;;;;;12.80;93936.00;;;;7397257;19;20148;-76
2023/09/01 01:47:33;;;;;;;3.85;3.22;;;;;12.90;93931.00;;;;7398094;19;20651;-75
2023/09/01 01:50:01;;;;;;;4.43;3.25;;;;;12.90;93940.00;;;;7397629;19;20137;-76
2023/09/01 01:52:38;;;;;;;7.80;3.00;;;;;12.90;93930.00;;;;7396958;19;20627;-75
2023/09/01 01:55:15;;;;;;;4.15;3.13;;;;;13.10;93933.00;;;;7400364;19;20132;-75
2023/09/01 01:57:42;;;;;;;3.67;2.70;;;;;13.10;93936.00;;;;7398062;19;20156;-75
2023/09/01 02:00:18;;;;;;;6.95;3.38;;;;;13.10;93930.00;;;;7396790;19;20176;-74
2023/09/01 02:02:53;;;;;;;4.50;2.97;;;;;13.10;93937.00;;;;7398598;19;20141;-75
2023/09/01 02:05:28;;;;;;;4.97;3.15;;;;;13.10;93941.00;;;;7398783;19;20132;-74
2023/09/01 02:08:03;;;;;;;3.38;3.03;;;;;13.10;93937.00;;;;7394373;19;20616;-75
2023/09/01 02:10:38;;;;;;;7.25;3.00;;;;;13.20;93939.00;;;;7398352;19;20136;-75
2023/09/01 02:13:06;;;;;;;5.32;3.22;;;;;13.20;93945.00;;;;7396962;19;20137;-74
2023/09/01 02:15:49;;;;;;;4.25;3.20;;;;;13.10;93945.00;;;;7397243;19;20128;-73
2023/09/01 02:18:24;;;;;;;6.93;3.47;;;;;13.20;93943.00;;;;7395484;19;20156;-73
2023/09/01 02:20:58;;;;;;;6.18;2.83;;;;;13.20;93941.00;;;;7398375;19;20160;-77
2023/09/01 02:23:32;;;;;;;6.88;2.90;;;;;13.30;93942.00;;;;7395899;19;20477;-74
2023/09/01 02:26:09;;;;;;;7.00;3.00;;;;;13.30;93938.00;;;;7395184;19;20235;-74
2023/09/01 02:28:37;;;;;;;5.20;3.42;;;;;13.20;93943.00;;;;7397532;19;20145;-74
2023/09/01 02:31:11;;;;;;;5.05;2.95;;;;;13.20;93946.00;;;;7396523;19;20156;-74
2023/09/01 02:33:39;;;;;;;3.22;2.92;;;;;13.30;93945.00;;;;7395035;19;20149;-73
2023/09/01 02:36:24;;;;;;;6.15;3.08;;;;;13.30;93951.00;;;;7396697;19;20172;-73
2023/09/01 02:38:53;;;;;;;8.30;3.30;;;;;13.20;93939.00;;;;7395039;19;20133;-75
2023/09/01 02:41:28;;;;;;;5.35;2.78;;;;;13.40;93949.00;;;;7394727;19;20172;-74
2023/09/01 02:44:02;;;;;;;3.80;2.72;;;;;13.30;93947.00;;;;7394943;19;20120;-73
2023/09/01 02:46:36;;;;;;;4.38;2.65;;;;;13.40;93944.00;;;;7396561;19;20161;-79
2023/09/01 02:49:05;;;;;;;4.28;2.60;;;;;13.40;93951.00;;;;7394774;19;20148;-78
2023/09/01 02:51:39;;;;;;;6.50;3.15;;;;;13.30;93950.00;;;;7395362;19;20148;-78
2023/09/01 02:54:13;;;;;;;4.20;3.08;;;;;13.40;93954.00;;;;7395799;19;20125;-78
2023/09/01 02:56:49;;;;;;;7.93;2.95;;;;;13.50;93961.00;;;;7395779;19;20481;-77
2023/09/01 02:59:23;;;;;;;5.15;2.72;;;;;13.50;93963.00;;;;7396329;19;20469;-76
2023/09/01 03:01:57;;;;;;;5.82;2.70;;;;;13.50;93953.00;;;;7395019;19;20194;-78
2023/09/01 03:04:25;;;;;;;4.90;2.80;;;;;13.60;93957.00;;;;7395613;19;20518;-77
2023/09/01 03:07:05;;;;;;;2.97;2.22;;;;;13.50;93965.00;;;;7396342;19;20141;-77
2023/09/01 03:09:37;;;;;;;3.65;2.53;;;;;13.50;93963.00;;;;7395159;19;20491;-79
2023/09/01 03:12:11;;;;;;;3.95;2.70;;;;;13.60;93968.00;;;;7394534;19;20143;-79
2023/09/01 03:14:46;;;;;;;4.28;2.72;;;;;13.60;93957.00;;;;7394483;19;20629;-76
2023/09/01 03:17:25;;;;;;;6.95;2.65;;;;;13.70;93969.00;;;;7395428;19;20152;-77
2023/09/01 03:19:55;;;;;;;6.57;2.35;;;;;13.70;93963.00;;;;7392413;19;20154;-78
2023/09/01 03:22:31;;;;;;;5.68;2.70;;;;;13.60;93955.00;;;;7393724;19;20132;-80
2023/09/01 03:24:59;;;;;;;3.58;2.72;;;;;13.60;93964.00;;;;7395486;19;20133;-79
2023/09/01 03:27:34;;;;;;;4.00;2.65;;;;;13.70;93968.00;;;;7395537;19;20152;-80
2023/09/01 03:30:08;;;;;;;3.67;2.80;;;;;13.70;93961.00;;;;7395327;19;20148;-81
2023/09/01 03:32:49;;;;;;;3.83;2.17;;;;;13.60;93959.00;;;;7395753;19;20191;-80
2023/09/01 03:35:17;;;;;;;5.78;2.58;;;;;13.60;93950.00;;;;7395406;19;20151;-79
2023/09/01 03:37:45;;;;;;;6.07;2.35;;;;;13.60;93956.00;;;;7400805;19;20619;-78
2023/09/01 03:40:19;;;;;;;4.18;2.75;;;;;13.50;93960.00;;;;7399833;19;20136;-78
2023/09/01 03:42:46;;;;;;;4.53;2.53;;;;;13.50;93960.00;;;;7401562;19;20632;-79
2023/09/01 03:45:23;;;;;;;3.92;2.33;;;;;13.60;93961.00;;;;7400731;19;20143;-81
2023/09/01 03:48:06;;;;;;;5.03;3.17;;;;;13.40;93966.00;;;;7402752;19;20207;-80
2023/09/01 03:50:40;;;;;;;2.83;2.13;;;;;13.50;93957.00;;;;7402873;19;20148;-81
2023/09/01 03:53:16;;;;;;;3.45;2.50;;;;;13.40;93962.00;;;;7402148;19;20133;-80
2023/09/01 03:55:50;;;;;;;4.20;2.50;;;;;13.50;93962.00;;;;7402129;19;20152;-78
2023/09/01 03:58:20;;;;;;;5.47;2.38;;;;;13.50;93965.00;;;;7401619;19;20620;-80
2023/09/01 04:00:53;;;;;;;5.30;2.90;;;;;13.50;93964.00;;;;7396895;19;20204;-82
2023/09/01 04:03:21;;;;;;;4.00;2.53;;;;;13.50;93957.00;;;;7403442;19;20188;-80
2023/09/01 04:05:59;;;;;;;3.33;2.50;;;;;13.50;93977.00;;;;7403286;19;20136;-78
2023/09/01 04:08:37;;;;;;;4.75;2.00;;;;;13.50;93962.00;;;;7397289;19;20188;-78
2023/09/01 04:11:11;;;;;;;3.08;2.20;;;;;13.50;93972.00;;;;7402150;19;20498;-81
2023/09/01 04:13:40;;;;;;;2.80;2.25;;;;;13.50;93966.00;;;;7403929;19;20152;-80
2023/09/01 04:16:14;;;;;;;3.78;2.20;;;;;13.60;93968.00;;;;7399806;19;20133;-80
2023/09/01 04:18:51;;;;;;;3.97;2.60;;;;;13.60;93960.00;;;;7401749;19;20124;-80
2023/09/01 04:21:23;;;;;;;4.82;2.25;;;;;13.50;93961.00;;;;7400834;19;20137;-80
2023/09/01 04:23:59;;;;;;;6.40;2.50;;;;;13.50;93957.00;;;;7399677;19;20152;-82
2023/09/01 04:26:27;;;;;;;11.95;3.15;;;;;13.50;93953.00;;;;7400634;19;20157;-77
2023/09/01 04:29:01;;;;;;;2.72;2.00;;;;;13.60;93951.00;;;;7402406;19;20147;-78
2023/09/01 04:31:30;;;;;;;3.63;2.10;;;;;13.60;93958.00;;;;7400228;19;20544;-79
2023/09/01 04:33:58;;;;;;;4.70;2.30;;;;;13.70;93954.00;;;;7401760;19;20141;-78
2023/09/01 04:36:32;;;;;;;4.43;2.13;;;;;13.60;93954.00;;;;7399316;19;20500;-79
2023/09/01 04:39:15;;;;;;;6.47;2.30;;;;;13.40;93962.00;;;;7397381;19;20194;-78
2023/09/01 04:41:43;;;;;;;5.25;2.35;;;;;13.60;93954.00;;;;7400280;19;20153;-78
2023/09/01 04:44:18;;;;;;;2.70;2.10;;;;;13.60;93955.00;;;;7400428;19;20135;-80
2023/09/01 04:46:49;;;;;;;4.05;2.45;;;;;13.70;93960.00;;;;7397860;19;20128;-79
2023/09/01 04:49:32;;;;;;;5.22;1.92;;;;;13.60;93966.00;;;;7399161;19;20149;-77
2023/09/01 04:52:08;;;;;;;2.38;2.13;;;;;13.60;93974.00;;;;7399551;19;20633;-78
2023/09/01 04:54:42;;;;;;;4.80;2.33;;;;;13.60;93980.00;;;;7398532;19;20177;-79
2023/09/01 04:57:10;;;;;;;3.70;2.25;;;;;13.70;93986.00;;;;7399211;19;20140;-78
2023/09/01 04:59:45;;;;;;;2.50;2.00;;;;;13.80;93990.00;;;;7399587;19;20599;-78
2023/09/01 05:02:20;;;;;;;2.72;2.22;;;;;13.80;93995.00;;;;7397538;19;20193;-78
2023/09/01 05:04:57;;;;;;;4.35;2.40;;;;;13.90;93995.00;;;;7400823;19;20257;-74
2023/09/01 05:07:25;;;;;;;3.75;2.10;;;;;13.80;93978.00;;;;7401657;19;20161;-74
2023/09/01 05:10:06;;;;;;;3.05;1.92;;;;;13.80;93981.00;;;;7399138;19;20161;-74
2023/09/01 05:12:41;;;;;;;2.30;1.98;;;;;13.80;93988.00;;;;7402565;19;20202;-74
2023/09/01 05:15:16;;;;;;;3.47;2.05;;;;;13.80;93986.00;;;;7402122;19;20133;-77
2023/09/01 05:17:45;;;;;;;2.30;2.10;;;;;13.80;93989.00;;;;7399323;19;20488;-74
2023/09/01 05:20:19;;;;;;;1.88;1.73;;;;;13.80;93987.00;;;;7397053;19;20212;-76
2023/09/01 05:22:54;;;;;;;3.67;2.13;;;;;13.90;93991.00;;;;7398729;19;20134;-75
2023/09/01 05:25:28;;;;;;;2.40;2.03;;;;;13.90;93995.00;;;;7397740;19;20147;-74
2023/09/01 05:28:03;;;;;;;3.67;1.48;;;;;14.00;94000.00;;;;7399037;19;20128;-74
2023/09/01 05:30:38;;;;;;;3.20;1.60;;;;;14.00;94006.00;;;;7398356;19;21139;-76
2023/09/01 05:33:08;;;;;;;1.67;1.58;;;;;14.00;94005.00;;;;7397985;19;20125;-74
2023/09/01 05:35:44;;;;;;;2.00;1.20;;;;;14.00;94019.00;;;;7397964;19;20156;-75
2023/09/01 05:38:12;;;;;;;2.20;1.40;;;;;13.90;94010.00;;;;7399336;19;20208;-74
2023/09/01 05:40:56;;;;;;;2.45;1.30;;;;;13.90;94011.00;;;;7398424;19;20914;-76
2023/09/01 05:43:31;;;;;;;3.28;1.50;;;;;13.90;94016.00;;;;7397597;19;20143;-74
2023/09/01 05:46:05;;;;;;;1.33;1.20;;;;;13.90;94023.00;;;;7397042;19;20141;-75
2023/09/01 05:48:36;;;;;;;1.52;1.30;;;;;14.00;94020.00;;;;7399561;19;20137;-74
2023/09/01 05:51:11;;;;;;;3.25;1.48;;;;;14.00;94029.00;;;;7396313;19;20164;-75
2023/09/01 05:53:39;;;;;;;2.03;1.40;;;;;14.00;94028.00;;;;7397209;19;20513;-75
2023/09/01 05:56:16;;;;;;;2.10;1.25;;;;;14.10;94036.00;;;;7396978;19;20487;-75
2023/09/01 05:58:50;;;;;;;1.20;1.10;;;;;14.00;94041.00;;;;7394890;19;20255;-75
2023/09/01 06:01:21;;;;;;;1.33;1.23;;;;;14.10;94036.00;;;;7395343;19;20681;-75
2023/09/01 06:03:55;;;;;;;4.07;1.20;;;;;14.10;94032.00;;;;7395971;19;20165;-75
2023/09/01 06:06:34;;;;;;;4.95;1.10;;;;;14.20;94035.00;;;;7395619;19;20176;-74
2023/09/01 06:09:16;;;;;;;1.25;1.15;;;;;14.30;94027.00;;;;7397258;19;20172;-75
2023/09/01 06:11:44;;;;;;;1.20;1.10;;;;;14.40;94039.00;;;;7396627;19;20480;-75
2023/09/01 06:14:19;;;;;;;1.77;1.20;;;;;14.50;94043.00;;;;7395135;19;20174;-75
2023/09/01 06:16:50;;;;;;;1.10;1.00;;;;;14.50;94036.00;;;;7397323;19;20129;-75
2023/09/01 06:19:26;;;;;;;5.40;1.10;;;;;14.60;94053.00;;;;7395892;19;20164;-75
2023/09/01 06:22:01;;;;;;;0.88;0.88;;;;;14.60;94050.00;;;;7393278;19;20215;-76
2023/09/01 06:24:30;;;;;;;2.83;1.10;;;;;14.50;94048.00;;;;7396608;19;20137;-75
2023/09/01 06:27:07;;;;;;;0.98;0.80;;;;;14.50;94058.00;;;;7395891;19;20624;-77
2023/09/01 06:29:35;;;;;;;0.80;0.80;;;;;14.40;94055.00;;;;7395686;19;20152;-76
2023/09/01 06:32:03;;;;;;;0.90;0.90;;;;;14.60;94055.00;;;;7396759;19;20152;-75
2023/09/01 06:34:39;;;;;;;2.63;0.95;;;;;14.50;94054.00;;;;7394810;19;20165;-75
2023/09/01 06:37:22;;;;;;;0.68;0.68;;;;;14.40;94058.00;;;;7394474;19;20161;-75
2023/09/01 06:40:04;;;;;;;1.10;0.88;;;;;14.50;94054.00;;;;7395387;19;20241;-77
2023/09/01 06:42:35;;;;;;;1.40;0.88;;;;;14.60;94060.00;;;;7395893;19;20148;-76
2023/09/01 06:45:09;;;;;;;5.70;0.82;;;;;14.70;94059.00;;;;7395195;19;20156;-75
2023/09/01 06:47:37;;;;;;;2.75;1.08;;;;;14.70;94055.00;;;;7396496;19;20154;-76
2023/09/01 06:50:14;;;;;;;1.00;0.82;;;;;14.70;94054.00;;;;7395157;19;20603;-75
2023/09/01 06:52:42;;;;;;;1.40;1.10;;;;;14.90;94047.00;;;;7394329;19;20544;-76
2023/09/01 06:55:22;;;;;;;1.48;0.80;;;;;15.00;94051.00;;;;7395600;19;20160;-75
2023/09/01 06:57:59;;;;;;;0.93;0.70;;;;;15.10;94055.00;;;;7395337;19;20145;-74
2023/09/01 07:00:34;;;;;;;0.52;0.52;;;;;15.20;94046.00;;;;7394079;19;20153;-77
2023/09/01 07:03:02;;;;;;;1.30;0.52;;;;;15.20;94037.00;;;;7395134;19;20164;-75
2023/09/01 07:05:37;;;;;;;0.73;0.68;;;;;15.40;94037.00;;;;7397042;19;20470;-75
2023/09/01 07:08:21;;;;;;;1.27;0.65;;;;;15.80;94044.00;;;;7394414;19;20623;-74
2023/09/01 07:10:49;;;;;;;0.63;0.52;;;;;16.00;94042.00;;;;7392569;19;20599;-75
2023/09/01 07:13:31;;;;;;;0.52;0.52;;;;;16.30;94034.00;;;;7395059;19;20503;-73
2023/09/01 07:16:06;;;;;;;1.48;0.50;;;;;16.40;94037.00;;;;7396216;19;20176;-74
2023/09/01 07:18:39;;;;;;;0.85;0.50;;;;;16.40;94043.00;;;;7394065;19;20157;-73
2023/09/01 07:21:13;;;;;;;1.25;0.70;;;;;16.30;94039.00;;;;7385977;19;20124;-73
2023/09/01 07:23:43;;;;;;;0.40;0.40;;;;;16.20;94052.00;;;;7380307;19;20136;-76
2023/09/01 07:26:17;;;;;;;0.80;0.50;;;;;16.10;94054.00;;;;7383355;19;20163;-74
2023/09/01 07:28:47;;;;;;;0.60;0.40;;;;;16.10;94053.00;;;;7383753;19;20144;-74
2023/09/01 07:31:23;;;;;;;0.50;0.40;;;;;16.10;94058.00;;;;7382390;19;20159;-73
2023/09/01 07:33:59;;;;;;;0.30;0.30;;;;;16.10;94055.00;;;;7385265;19;20137;-73
2023/09/01 07:36:34;;;;;;;0.40;0.40;;;;;16.10;94069.00;;;;7381797;19;20135;-74
2023/09/01 07:39:02;;;;;;;0.50;0.50;;;;;16.10;94058.00;;;;7381583;19;20933;-74
2023/09/01 07:41:37;;;;;;;0.52;0.52;;;;;16.00;94063.00;;;;7383202;19;20230;-76
2023/09/01 07:44:16;;;;;;;0.50;0.50;;;;;16.00;94068.00;;;;7385570;19;20128;-74
2023/09/01 07:46:51;;;;;;;0.93;0.55;;;;;16.00;94067.00;;;;7381544;19;20631;-74
2023/09/01 07:49:25;;;;;;;1.08;0.63;;;;;15.90;94070.00;;;;7385189;19;20161;-75
2023/09/01 07:51:56;;;;;;;1.02;0.80;;;;;15.70;94069.00;;;;7383175;19;20149;-74
2023/09/01 07:54:30;;;;;;;0.70;0.70;;;;;15.70;94086.00;;;;7379990;19;20156;-75
2023/09/01 07:57:05;;;;;;;0.70;0.70;;;;;15.70;94078.00;;;;7381111;19;20156;-76
2023/09/01 07:59:41;;;;;;;0.80;0.80;;;;;15.80;94078.00;;;;7382947;19;20224;-76
2023/09/01 08:02:16;;;;;;;2.22;1.10;;;;;15.90;94076.00;;;;7380997;19;20180;-75
2023/09/01 08:04:51;;;;;;;1.60;0.80;;;;;16.20;94073.00;;;;7381894;19;20136;-75
2023/09/01 08:07:31;;;;;;;1.75;0.70;;;;;16.50;94075.00;;;;7383593;19;20155;-76
2023/09/01 08:10:13;;;;;;;2.13;0.88;;;;;16.60;94080.00;;;;7380563;19;20151;-75
2023/09/01 08:12:48;;;;;;;1.10;0.90;;;;;16.70;94083.00;;;;7381433;19;20133;-75
2023/09/01 08:15:23;;;;;;;0.90;0.77;;;;;16.90;94081.00;;;;7380897;19;20211;-75
2023/09/01 08:17:55;;;;;;;0.80;0.80;;;;;16.90;94089.00;;;;7380773;19;20152;-75
2023/09/01 08:20:30;;;;;;;1.60;0.80;;;;;16.90;94090.00;;;;7380815;19;20622;-76
2023/09/01 08:22:59;;;;;;;1.33;1.23;;;;;16.80;94100.00;;;;7387033;19;20163;-76
2023/09/01 08:25:35;;;;;;;0.95;0.85;;;;;16.70;94094.00;;;;7387839;19;20152;-75
2023/09/01 08:28:04;;;;;;;0.75;0.75;;;;;16.70;94092.00;;;;7388746;19;20129;-76
2023/09/01 08:30:42;;;;;;;1.15;1.00;;;;;16.80;94091.00;;;;7387513;19;20635;-75
2023/09/01 08:33:13;;;;;;;0.88;0.80;;;;;16.80;94093.00;;;;7388234;19;20167;-74
2023/09/01 08:35:47;;;;;;;0.68;0.68;;;;;16.90;94099.00;;;;7389350;19;20196;-78
2023/09/01 08:38:22;;;;;;;0.50;0.50;;;;;17.00;94099.00;;;;7387724;19;20139;-76
2023/09/01 08:41:06;;;;;;;0.77;0.77;;;;;17.20;94089.00;;;;7389922;19;20504;-76
2023/09/01 08:43:42;;;;;;;0.82;0.80;;;;;17.40;94083.00;;;;7387233;19;20195;-77
2023/09/01 08:46:21;;;;;;;0.85;0.77;;;;;17.60;94098.00;;;;7385227;19;20148;-77
2023/09/01 08:48:56;;;;;;;1.02;0.77;;;;;17.60;94094.00;;;;7387402;19;20146;-77
2023/09/01 08:51:28;;;;;;;2.28;0.88;;;;;17.60;94096.00;;;;7387131;19;20181;-76
2023/09/01 08:54:06;;;;;;;0.77;0.63;;;;;17.60;94103.00;;;;7387073;19;20266;-79
2023/09/01 08:56:42;;;;;;;2.05;0.80;;;;;17.50;94096.00;;;;7389184;19;20128;-79
2023/09/01 08:59:17;;;;;;;0.60;0.60;;;;;17.60;94096.00;;;;7390616;19;20489;-79
2023/09/01 09:01:49;;;;;;;0.60;0.60;;;;;17.90;94084.00;;;;7388209;19;20173;-77
2023/09/01 09:04:25;;;;;;;0.65;0.50;;;;;17.90;94101.00;;;;7388408;19;20593;-78
2023/09/01 09:07:15;;;;;;;0.20;0.20;;;;;17.80;94098.00;;;;7389541;19;20505;-77
2023/09/01 09:10:00;;;;;;;0.57;0.50;;;;;17.80;94101.00;;;;7388777;19;20519;-79
2023/09/01 09:12:44;;;;;;;0.85;0.63;;;;;17.50;94102.00;;;;7387902;19;20144;-78
2023/09/01 09:15:19;;;;;;;2.10;0.70;;;;;17.40;94102.00;;;;7387905;19;20160;-81
2023/09/01 09:17:54;;;;;;;1.85;0.60;;;;;17.30;94101.00;;;;7391067;19;20132;-79
2023/09/01 09:20:37;;;;;;;0.70;0.70;;;;;17.20;94105.00;;;;7389397;19;20148;-78
2023/09/01 09:23:05;;;;;;;0.52;0.52;;;;;17.20;94099.00;;;;7388282;19;20176;-77
2023/09/01 09:25:40;;;;;;;0.50;0.50;;;;;17.30;94107.00;;;;7386633;19;20148;-79
2023/09/01 09:28:13;;;;;;;2.85;0.70;;;;;17.20;94109.00;;;;7387664;19;20145;-79
2023/09/01 09:30:55;;;;;;;1.25;0.73;;;;;17.20;94117.00;;;;7387331;19;20141;-78
2023/09/01 09:33:33;;;;;;;0.55;0.55;;;;;17.10;94123.00;;;;7383695;19;20179;-78
2023/09/01 09:36:12;;;;;;;0.95;0.80;;;;;17.20;94116.00;;;;7386319;19;20224;-78
2023/09/01 09:38:46;;;;;;;0.77;0.70;;;;;17.20;94124.00;;;;7388496;19;20145;-77
2023/09/01 09:41:21;;;;;;;0.93;0.63;;;;;17.30;94115.00;;;;7385786;19;20135;-79
2023/09/01 09:43:56;;;;;;;1.42;0.70;;;;;17.60;94120.00;;;;7385603;19;20152;-79
2023/09/01 09:46:38;;;;;;;1.13;0.90;;;;;17.70;94113.00;;;;7387499;19;20193;-78
2023/09/01 09:49:17;;;;;;;0.90;0.70;;;;;17.80;94113.00;;;;7386521;19;20149;-78
2023/09/01 09:51:57;;;;;;;1.63;0.98;;;;;17.90;94122.00;;;;7385861;19;20152;-79
2023/09/01 09:54:29;;;;;;;1.40;1.05;;;;;17.90;94121.00;;;;7385933;19;20134;-79
2023/09/01 09:57:06;;;;;;;1.15;0.95;;;;;18.10;94120.00;;;;7387771;19;20149;-78
2023/09/01 09:59:55;;;;;;;2.08;1.25;;;;;18.00;94118.00;;;;7388020;19;20158;-79
2023/09/01 10:02:34;;;;;;;1.75;1.08;;;;;17.90;94122.00;;;;7386181;19;20176;-78
2023/09/01 10:05:12;;;;;;;2.50;1.15;;;;;17.60;94118.00;;;;7387582;19;20152;-80
2023/09/01 10:07:42;;;;;;;2.35;1.17;;;;;17.90;94115.00;;;;7386928;19;20183;-78
2023/09/01 10:10:23;;;;;;;2.03;1.25;;;;;18.00;94108.00;;;;7390198;19;20165;-79
2023/09/01 10:12:57;;;;;;;6.22;1.40;;;;;18.10;94104.00;;;;7390847;19;20557;-80
2023/09/01 10:15:27;;;;;;;3.70;1.38;;;;;18.10;94102.00;;;;7388593;19;20172;-79
2023/09/01 10:17:58;;;;;;;2.90;1.27;;;;;18.50;94094.00;;;;7387020;19;20144;-77
2023/09/01 10:20:35;;;;;;;1.67;1.10;;;;;19.00;94088.00;;;;7387258;19;20161;-78
2023/09/01 10:23:05;;;;;;;1.67;1.35;;;;;19.30;94088.00;;;;7385956;19;20157;-76
2023/09/01 10:25:40;;;;;;;1.67;1.40;;;;;19.10;94088.00;;;;7389834;19;20132;-77
2023/09/01 10:28:14;;;;;;;2.60;1.38;;;;;19.20;94100.00;;;;7385621;19;20165;-77
2023/09/01 10:30:49;;;;;;;1.90;1.20;;;;;18.80;94100.00;;;;7386606;19;21023;-79
2023/09/01 10:33:25;;;;;;;1.52;1.20;;;;;18.70;94102.00;;;;7386584;19;20140;-77
2023/09/01 10:36:17;;;;;;;1.75;1.30;;;;;18.60;94108.00;;;;7386666;19;20136;-75
2023/09/01 10:38:46;;;;;;;1.83;1.38;;;;;18.60;94102.00;;;;7384949;19;20513;-75
2023/09/01 10:41:49;;;;;;;2.70;1.20;;;;;18.50;94106.00;;;;7385415;19;20178;-75
2023/09/01 10:44:47;;;;;;;1.48;1.13;;;;;18.50;94103.00;;;;7386026;19;20140;-75
2023/09/01 10:47:31;;;;;;;1.77;1.30;;;;;18.60;94098.00;;;;7383601;19;20149;-74
2023/09/01 10:50:07;;;;;;;1.48;1.10;;;;;18.90;94107.00;;;;7384924;19;20215;-75
2023/09/01 10:52:36;;;;;;;3.50;1.35;;;;;19.10;94099.00;;;;7384484;19;20144;-75
2023/09/01 10:55:10;;;;;;;1.38;1.10;;;;;19.20;94096.00;;;;7385615;19;20179;-75
2023/09/01 10:57:50;;;;;;;1.98;1.02;;;;;19.60;94101.00;;;;7385071;19;20200;-75
2023/09/01 11:00:32;;;;;;;1.67;0.90;;;;;19.90;94103.00;;;;7384583;19;20169;-74
2023/09/01 11:03:37;;;;;;;4.93;1.23;;;;;20.00;94101.00;;;;7383853;19;20599;-74
2023/09/01 11:06:12;;;;;;;1.88;1.20;;;;;19.90;94105.00;;;;7384223;19;20133;-75
2023/09/01 11:08:47;;;;;;;2.20;1.20;;;;;20.20;94100.00;;;;7385693;19;20163;-75
2023/09/01 11:11:22;;;;;;;1.63;1.10;;;;;20.40;94105.00;;;;7384735;19;20144;-76
2023/09/01 11:13:58;;;;;;;2.40;1.15;;;;;20.40;94097.00;;;;7384495;19;20144;-74
2023/09/01 11:16:34;;;;;;;1.48;1.00;;;;;20.80;94073.00;;;;7381777;19;20460;-75
2023/09/01 11:19:02;;;;;;;1.98;1.08;;;;;21.70;94067.00;;;;7386039;19;20151;-74
2023/09/01 11:21:40;;;;;;;1.42;1.00;;;;;21.90;94083.00;;;;7385643;19;20212;-76
2023/09/01 11:24:08;;;;;;;2.05;1.00;;;;;21.60;94075.00;;;;7379404;19;20488;-78
2023/09/01 11:26:42;;;;;;;1.33;1.00;;;;;21.90;94077.00;;;;7382226;19;20203;-76
2023/09/01 11:29:12;;;;;;;1.10;1.00;;;;;21.80;94083.00;;;;7384287;19;20202;-77
2023/09/01 11:31:46;;;;;;;0.77;0.77;;;;;21.00;94089.00;;;;7383745;19;20162;-77
2023/09/01 11:34:15;;;;;;;2.80;1.13;;;;;21.10;94090.00;;;;7384247;19;20604;-77
2023/09/01 11:36:50;;;;;;;1.35;1.10;;;;;21.30;94049.00;;;;7383809;19;20148;-77
2023/09/01 11:39:18;;;;;;;1.55;1.30;;;;;22.10;94066.00;;;;7382696;19;20152;-76
2023/09/01 11:41:53;;;;;;;2.83;1.00;;;;;22.70;94049.00;;;;7384614;19;20125;-76
2023/09/01 11:44:21;;;;;;;1.20;1.00;;;;;23.60;94036.00;;;;7382972;19;20144;-78
2023/09/01 11:46:56;;;;;;;2.17;0.95;;;;;24.30;94080.00;;;;7380123;19;20154;-77
2023/09/01 11:49:34;;;;;;;1.77;0.90;;;;;23.30;94086.00;;;;7382237;19;20147;-76
2023/09/01 11:52:09;;;;;;;1.92;1.25;;;;;22.40;94092.00;;;;7377205;19;20742;-77
2023/09/01 11:54:43;;;;;;;2.05;1.08;;;;;21.70;94086.00;;;;7383940;19;20183;-76
2023/09/01 11:57:20;;;;;;;1.85;1.00;;;;;21.80;94090.00;;;;7381995;19;20507;-75
2023/09/01 11:59:51;;;;;;;1.40;0.88;;;;;21.90;94088.00;;;;7385984;19;20193;-75
2023/09/01 12:02:25;;;;;;;2.53;1.02;;;;;21.20;94098.00;;;;7386599;19;20179;-77
2023/09/01 12:04:53;;;;;;;1.15;1.00;;;;;20.60;94095.00;;;;7385082;19;20604;-77
2023/09/01 12:07:42;;;;;;;2.83;1.25;;;;;20.40;94098.00;;;;7386813;19;20638;-76
2023/09/01 12:10:21;;;;;;;2.67;1.25;;;;;20.10;94105.00;;;;7385510;19;20159;-76
2023/09/01 12:13:12;;;;;;;0.85;0.82;;;;;20.00;94115.00;;;;7389403;19;20133;-77
2023/09/01 12:16:01;;;;;;;1.30;1.15;;;;;20.00;94110.00;;;;7390166;19;20171;-76
2023/09/01 12:18:39;;;;;;;2.83;1.30;;;;;20.00;94119.00;;;;7386825;19;20641;-77
2023/09/01 12:21:09;;;;;;;1.20;0.98;;;;;19.80;94125.00;;;;7387895;19;20140;-76
2023/09/01 12:23:45;;;;;;;2.47;1.13;;;;;19.50;94135.00;;;;7389879;19;20128;-75
2023/09/01 12:26:15;;;;;;;1.50;1.20;;;;;19.50;94132.00;;;;7390893;19;20172;-75
2023/09/01 12:28:50;;;;;;;2.38;1.23;;;;;19.40;94127.00;;;;7394484;19;20149;-75
2023/09/01 12:31:18;;;;;;;3.92;1.17;;;;;19.00;94131.00;;;;7388383;19;20159;-75
2023/09/01 12:33:52;;;;;;;1.25;1.15;;;;;18.90;94128.00;;;;7389244;19;20504;-75
2023/09/01 12:36:27;;;;;;;1.73;1.20;;;;;19.20;94136.00;;;;7388828;19;20155;-76
2023/09/01 12:38:55;;;;;;;2.88;1.60;;;;;19.40;94138.00;;;;7387122;19;20137;-75
2023/09/01 12:41:29;;;;;;;2.65;1.50;;;;;19.40;94129.00;;;;7387228;19;20553;-75
2023/09/01 12:43:57;;;;;;;1.38;1.02;;;;;19.60;94128.00;;;;7386404;19;20125;-75
2023/09/01 12:46:31;;;;;;;1.92;1.25;;;;;20.10;94112.00;;;;7387480;19;20580;-75
2023/09/01 12:48:59;;;;;;;1.27;1.15;;;;;21.10;94101.00;;;;7387946;19;20460;-75
2023/09/01 12:51:34;;;;;;;3.22;1.30;;;;;21.90;94090.00;;;;7386182;19;20148;-75
2023/09/01 12:54:04;;;;;;;1.10;1.00;;;;;22.00;94103.00;;;;7387503;19;20188;-75
2023/09/01 12:56:38;;;;;;;3.22;1.50;;;;;21.80;94109.00;;;;7390029;19;20502;-75